sensor_id;sensor_type;location;lat;lon;timestamp;P1;durP1;ratioP1;P2;durP2;ratioP2
30896;SDS011;64229;52.246;21.054;2023-06-22T00:01:45;30.93;;;22.80;;
30896;SDS011;64229;52.246;21.054;2023-06-22T00:04:11;30.88;;;21.90;;
30896;SDS011;64229;52.246;21.054;2023-06-22T00:06:36;29.53;;;22.63;;
30896;SDS011;64229;52.246;21.054;2023-06-22T00:09:01;31.65;;;22.67;;
30896;SDS011;64229;52.246;21.054;2023-06-22T00:11:28;36.97;;;23.25;;
30896;SDS011;64229;52.246;21.054;2023-06-22T00:13:53;28.17;;;21.77;;
30896;SDS011;64229;52.246;21.054;2023-06-22T00:16:18;29.35;;;21.65;;
30896;SDS011;64229;52.246;21.054;2023-06-22T00:18:44;30.42;;;23.15;;
30896;SDS011;64229;52.246;21.054;2023-06-22T00:21:12;29.80;;;22.38;;
30896;SDS011;64229;52.246;21.054;2023-06-22T00:23:38;29.23;;;22.02;;
30896;SDS011;64229;52.246;21.054;2023-06-22T00:26:03;31.97;;;23.60;;
30896;SDS011;64229;52.246;21.054;2023-06-22T00:28:28;32.10;;;22.63;;
30896;SDS011;64229;52.246;21.054;2023-06-22T00:30:54;30.65;;;22.85;;
30896;SDS011;64229;52.246;21.054;2023-06-22T00:33:19;31.38;;;22.90;;
30896;SDS011;64229;52.246;21.054;2023-06-22T00:35:44;30.65;;;23.08;;
30896;SDS011;64229;52.246;21.054;2023-06-22T00:38:10;33.25;;;23.42;;
30896;SDS011;64229;52.246;21.054;2023-06-22T00:40:36;31.17;;;23.63;;
30896;SDS011;64229;52.246;21.054;2023-06-22T00:43:02;32.03;;;23.73;;
30896;SDS011;64229;52.246;21.054;2023-06-22T00:45:28;36.97;;;25.40;;
30896;SDS011;64229;52.246;21.054;2023-06-22T00:47:56;31.55;;;22.08;;
30896;SDS011;64229;52.246;21.054;2023-06-22T00:50:23;31.95;;;23.05;;
30896;SDS011;64229;52.246;21.054;2023-06-22T00:52:55;32.83;;;23.98;;
30896;SDS011;64229;52.246;21.054;2023-06-22T00:55:22;30.52;;;23.30;;
30896;SDS011;64229;52.246;21.054;2023-06-22T00:57:48;32.58;;;23.55;;
30896;SDS011;64229;52.246;21.054;2023-06-22T01:00:17;33.80;;;24.48;;
30896;SDS011;64229;52.246;21.054;2023-06-22T01:02:45;32.83;;;23.70;;
30896;SDS011;64229;52.246;21.054;2023-06-22T01:05:12;35.28;;;24.95;;
30896;SDS011;64229;52.246;21.054;2023-06-22T01:13:06;31.80;;;22.20;;
30896;SDS011;64229;52.246;21.054;2023-06-22T01:15:40;33.33;;;23.00;;
30896;SDS011;64229;52.246;21.054;2023-06-22T01:18:14;30.45;;;22.85;;
30896;SDS011;64229;52.246;21.054;2023-06-22T01:20:42;30.80;;;23.00;;
30896;SDS011;64229;52.246;21.054;2023-06-22T01:29:14;30.60;;;21.50;;
30896;SDS011;64229;52.246;21.054;2023-06-22T01:31:41;32.50;;;23.60;;
30896;SDS011;64229;52.246;21.054;2023-06-22T01:34:09;36.85;;;25.23;;
30896;SDS011;64229;52.246;21.054;2023-06-22T01:36:36;33.20;;;23.15;;
30896;SDS011;64229;52.246;21.054;2023-06-22T01:39:03;30.95;;;22.40;;
30896;SDS011;64229;52.246;21.054;2023-06-22T01:41:30;34.33;;;23.77;;
30896;SDS011;64229;52.246;21.054;2023-06-22T01:43:58;34.65;;;22.98;;
30896;SDS011;64229;52.246;21.054;2023-06-22T01:46:24;31.15;;;22.92;;
30896;SDS011;64229;52.246;21.054;2023-06-22T01:48:50;33.60;;;23.73;;
30896;SDS011;64229;52.246;21.054;2023-06-22T01:51:16;29.85;;;22.02;;
30896;SDS011;64229;52.246;21.054;2023-06-22T01:53:41;31.35;;;23.23;;
30896;SDS011;64229;52.246;21.054;2023-06-22T01:56:07;30.33;;;22.52;;
30896;SDS011;64229;52.246;21.054;2023-06-22T01:58:33;32.65;;;23.60;;
30896;SDS011;64229;52.246;21.054;2023-06-22T02:01:11;32.85;;;24.60;;
30896;SDS011;64229;52.246;21.054;2023-06-22T02:03:40;34.88;;;24.17;;
30896;SDS011;64229;52.246;21.054;2023-06-22T02:06:10;32.25;;;23.23;;
30896;SDS011;64229;52.246;21.054;2023-06-22T02:08:44;32.45;;;23.38;;
30896;SDS011;64229;52.246;21.054;2023-06-22T02:11:13;35.25;;;25.13;;
30896;SDS011;64229;52.246;21.054;2023-06-22T02:13:41;32.92;;;24.60;;
30896;SDS011;64229;52.246;21.054;2023-06-22T02:16:09;35.53;;;24.42;;
30896;SDS011;64229;52.246;21.054;2023-06-22T02:18:36;36.45;;;25.60;;
30896;SDS011;64229;52.246;21.054;2023-06-22T02:21:02;35.08;;;25.23;;
30896;SDS011;64229;52.246;21.054;2023-06-22T02:23:27;39.25;;;26.85;;
30896;SDS011;64229;52.246;21.054;2023-06-22T02:25:53;36.00;;;25.50;;
30896;SDS011;64229;52.246;21.054;2023-06-22T02:28:18;37.38;;;25.80;;
30896;SDS011;64229;52.246;21.054;2023-06-22T02:30:44;39.20;;;27.17;;
30896;SDS011;64229;52.246;21.054;2023-06-22T02:33:09;36.80;;;26.67;;
30896;SDS011;64229;52.246;21.054;2023-06-22T02:35:35;42.72;;;29.00;;
30896;SDS011;64229;52.246;21.054;2023-06-22T02:38:01;42.97;;;29.08;;
30896;SDS011;64229;52.246;21.054;2023-06-22T02:40:28;43.45;;;30.73;;
30896;SDS011;64229;52.246;21.054;2023-06-22T02:42:54;40.55;;;28.98;;
30896;SDS011;64229;52.246;21.054;2023-06-22T02:45:20;48.00;;;30.08;;
30896;SDS011;64229;52.246;21.054;2023-06-22T02:47:46;42.70;;;28.95;;
30896;SDS011;64229;52.246;21.054;2023-06-22T02:50:13;45.75;;;31.67;;
30896;SDS011;64229;52.246;21.054;2023-06-22T02:52:38;44.80;;;31.02;;
30896;SDS011;64229;52.246;21.054;2023-06-22T02:55:04;46.42;;;30.38;;
30896;SDS011;64229;52.246;21.054;2023-06-22T02:57:32;49.63;;;32.17;;
30896;SDS011;64229;52.246;21.054;2023-06-22T02:59:57;44.35;;;29.98;;
30896;SDS011;64229;52.246;21.054;2023-06-22T03:02:23;48.90;;;32.08;;
30896;SDS011;64229;52.246;21.054;2023-06-22T03:04:48;42.70;;;30.57;;
30896;SDS011;64229;52.246;21.054;2023-06-22T03:07:14;47.05;;;31.30;;
30896;SDS011;64229;52.246;21.054;2023-06-22T03:09:39;45.13;;;30.67;;
30896;SDS011;64229;52.246;21.054;2023-06-22T03:12:07;46.80;;;32.05;;
30896;SDS011;64229;52.246;21.054;2023-06-22T03:14:32;47.15;;;31.63;;
30896;SDS011;64229;52.246;21.054;2023-06-22T03:16:57;45.73;;;31.23;;
30896;SDS011;64229;52.246;21.054;2023-06-22T03:19:28;45.08;;;31.38;;
30896;SDS011;64229;52.246;21.054;2023-06-22T03:21:54;48.00;;;31.52;;
30896;SDS011;64229;52.246;21.054;2023-06-22T03:24:20;48.05;;;31.08;;
30896;SDS011;64229;52.246;21.054;2023-06-22T03:26:45;49.13;;;32.35;;
30896;SDS011;64229;52.246;21.054;2023-06-22T03:29:11;46.75;;;30.40;;
30896;SDS011;64229;52.246;21.054;2023-06-22T03:31:37;49.45;;;31.45;;
30896;SDS011;64229;52.246;21.054;2023-06-22T03:34:02;46.03;;;30.73;;
30896;SDS011;64229;52.246;21.054;2023-06-22T03:36:27;44.20;;;30.02;;
30896;SDS011;64229;52.246;21.054;2023-06-22T03:38:53;54.70;;;31.50;;
30896;SDS011;64229;52.246;21.054;2023-06-22T03:41:18;46.78;;;30.23;;
30896;SDS011;64229;52.246;21.054;2023-06-22T03:43:43;46.22;;;31.20;;
30896;SDS011;64229;52.246;21.054;2023-06-22T03:46:09;45.70;;;29.83;;
30896;SDS011;64229;52.246;21.054;2023-06-22T03:48:34;43.92;;;29.08;;
30896;SDS011;64229;52.246;21.054;2023-06-22T03:50:59;46.08;;;29.65;;
30896;SDS011;64229;52.246;21.054;2023-06-22T03:53:26;45.47;;;28.67;;
30896;SDS011;64229;52.246;21.054;2023-06-22T03:55:51;46.05;;;29.63;;
30896;SDS011;64229;52.246;21.054;2023-06-22T03:58:18;47.03;;;29.33;;
30896;SDS011;64229;52.246;21.054;2023-06-22T04:00:48;44.60;;;29.58;;
30896;SDS011;64229;52.246;21.054;2023-06-22T04:03:17;43.00;;;28.73;;
30896;SDS011;64229;52.246;21.054;2023-06-22T04:05:46;43.05;;;28.08;;
30896;SDS011;64229;52.246;21.054;2023-06-22T04:08:13;47.83;;;29.63;;
30896;SDS011;64229;52.246;21.054;2023-06-22T04:10:39;43.40;;;29.38;;
30896;SDS011;64229;52.246;21.054;2023-06-22T04:13:04;44.75;;;28.08;;
30896;SDS011;64229;52.246;21.054;2023-06-22T04:15:30;44.85;;;29.05;;
30896;SDS011;64229;52.246;21.054;2023-06-22T04:17:55;47.50;;;28.98;;
30896;SDS011;64229;52.246;21.054;2023-06-22T04:20:21;40.85;;;26.48;;
30896;SDS011;64229;52.246;21.054;2023-06-22T04:22:46;42.85;;;26.45;;
30896;SDS011;64229;52.246;21.054;2023-06-22T04:25:12;43.25;;;28.17;;
30896;SDS011;64229;52.246;21.054;2023-06-22T04:27:37;43.25;;;28.08;;
30896;SDS011;64229;52.246;21.054;2023-06-22T04:30:05;41.42;;;27.63;;
30896;SDS011;64229;52.246;21.054;2023-06-22T04:32:32;45.30;;;27.90;;
30896;SDS011;64229;52.246;21.054;2023-06-22T04:34:58;40.65;;;26.60;;
30896;SDS011;64229;52.246;21.054;2023-06-22T04:37:25;38.47;;;25.98;;
30896;SDS011;64229;52.246;21.054;2023-06-22T04:39:51;43.55;;;27.10;;
30896;SDS011;64229;52.246;21.054;2023-06-22T04:42:16;41.92;;;25.85;;
30896;SDS011;64229;52.246;21.054;2023-06-22T04:44:41;40.83;;;26.77;;
30896;SDS011;64229;52.246;21.054;2023-06-22T04:47:07;37.15;;;25.92;;
30896;SDS011;64229;52.246;21.054;2023-06-22T04:49:33;41.88;;;26.90;;
30896;SDS011;64229;52.246;21.054;2023-06-22T04:52:03;44.85;;;26.50;;
30896;SDS011;64229;52.246;21.054;2023-06-22T04:54:29;39.70;;;24.48;;
30896;SDS011;64229;52.246;21.054;2023-06-22T04:56:57;39.80;;;24.63;;
30896;SDS011;64229;52.246;21.054;2023-06-22T04:59:23;40.22;;;26.13;;
30896;SDS011;64229;52.246;21.054;2023-06-22T05:01:53;36.80;;;24.73;;
30896;SDS011;64229;52.246;21.054;2023-06-22T05:04:22;40.90;;;25.33;;
30896;SDS011;64229;52.246;21.054;2023-06-22T05:06:48;39.58;;;25.42;;
30896;SDS011;64229;52.246;21.054;2023-06-22T05:09:14;40.28;;;26.15;;
30896;SDS011;64229;52.246;21.054;2023-06-22T05:11:39;43.80;;;26.92;;
30896;SDS011;64229;52.246;21.054;2023-06-22T05:14:05;37.63;;;25.77;;
30896;SDS011;64229;52.246;21.054;2023-06-22T05:16:30;39.83;;;23.98;;
30896;SDS011;64229;52.246;21.054;2023-06-22T05:18:55;38.05;;;25.10;;
30896;SDS011;64229;52.246;21.054;2023-06-22T05:21:25;42.42;;;24.92;;
30896;SDS011;64229;52.246;21.054;2023-06-22T05:23:52;35.33;;;22.88;;
30896;SDS011;64229;52.246;21.054;2023-06-22T05:26:18;36.70;;;25.02;;
30896;SDS011;64229;52.246;21.054;2023-06-22T06:14:05;36.65;;;21.92;;
30896;SDS011;64229;52.246;21.054;2023-06-22T06:16:30;34.75;;;20.23;;
30896;SDS011;64229;52.246;21.054;2023-06-22T06:18:55;31.67;;;21.10;;
30896;SDS011;64229;52.246;21.054;2023-06-22T06:21:21;32.53;;;20.58;;
30896;SDS011;64229;52.246;21.054;2023-06-22T06:23:46;30.35;;;19.85;;
30896;SDS011;64229;52.246;21.054;2023-06-22T06:26:12;28.75;;;17.90;;
30896;SDS011;64229;52.246;21.054;2023-06-22T06:28:37;29.65;;;18.75;;
30896;SDS011;64229;52.246;21.054;2023-06-22T06:31:03;30.48;;;19.48;;
30896;SDS011;64229;52.246;21.054;2023-06-22T06:33:32;28.20;;;19.15;;
30896;SDS011;64229;52.246;21.054;2023-06-22T06:35:57;24.42;;;16.83;;
30896;SDS011;64229;52.246;21.054;2023-06-22T06:38:23;25.10;;;19.05;;
30896;SDS011;64229;52.246;21.054;2023-06-22T06:40:48;26.77;;;18.42;;
30896;SDS011;64229;52.246;21.054;2023-06-22T06:43:14;26.65;;;17.63;;
30896;SDS011;64229;52.246;21.054;2023-06-22T06:45:39;25.23;;;17.38;;
30896;SDS011;64229;52.246;21.054;2023-06-22T06:48:04;25.93;;;17.83;;
30896;SDS011;64229;52.246;21.054;2023-06-22T06:50:30;27.98;;;18.30;;
30896;SDS011;64229;52.246;21.054;2023-06-22T06:52:55;25.38;;;17.45;;
30896;SDS011;64229;52.246;21.054;2023-06-22T06:55:21;23.73;;;15.98;;
30896;SDS011;64229;52.246;21.054;2023-06-22T06:57:49;22.95;;;15.48;;
30896;SDS011;64229;52.246;21.054;2023-06-22T07:00:14;24.88;;;16.65;;
30896;SDS011;64229;52.246;21.054;2023-06-22T07:02:44;24.77;;;15.52;;
30896;SDS011;64229;52.246;21.054;2023-06-22T07:05:10;25.35;;;14.55;;
30896;SDS011;64229;52.246;21.054;2023-06-22T07:07:37;23.67;;;14.80;;
30896;SDS011;64229;52.246;21.054;2023-06-22T07:10:02;22.05;;;14.55;;
30896;SDS011;64229;52.246;21.054;2023-06-22T07:12:29;20.45;;;14.18;;
30896;SDS011;64229;52.246;21.054;2023-06-22T07:14:57;20.73;;;14.10;;
30896;SDS011;64229;52.246;21.054;2023-06-22T07:17:26;27.73;;;14.82;;
30896;SDS011;64229;52.246;21.054;2023-06-22T07:19:52;24.85;;;15.35;;
30896;SDS011;64229;52.246;21.054;2023-06-22T07:22:17;19.57;;;14.27;;
30896;SDS011;64229;52.246;21.054;2023-06-22T07:24:42;21.87;;;13.37;;
30896;SDS011;64229;52.246;21.054;2023-06-22T07:27:08;22.20;;;13.20;;
30896;SDS011;64229;52.246;21.054;2023-06-22T07:29:36;18.00;;;12.13;;
30896;SDS011;64229;52.246;21.054;2023-06-22T07:32:01;18.88;;;12.85;;
30896;SDS011;64229;52.246;21.054;2023-06-22T07:34:29;16.30;;;11.82;;
30896;SDS011;64229;52.246;21.054;2023-06-22T07:36:55;21.02;;;11.32;;
30896;SDS011;64229;52.246;21.054;2023-06-22T07:39:20;18.27;;;10.73;;
30896;SDS011;64229;52.246;21.054;2023-06-22T07:41:50;13.82;;;9.70;;
30896;SDS011;64229;52.246;21.054;2023-06-22T07:44:16;16.08;;;9.88;;
30896;SDS011;64229;52.246;21.054;2023-06-22T07:46:41;13.13;;;8.27;;
30896;SDS011;64229;52.246;21.054;2023-06-22T07:49:06;13.10;;;7.93;;
30896;SDS011;64229;52.246;21.054;2023-06-22T07:51:33;14.23;;;8.82;;
30896;SDS011;64229;52.246;21.054;2023-06-22T07:53:58;9.63;;;7.40;;
30896;SDS011;64229;52.246;21.054;2023-06-22T07:56:24;8.60;;;7.30;;
30896;SDS011;64229;52.246;21.054;2023-06-22T07:58:49;9.37;;;6.60;;
30896;SDS011;64229;52.246;21.054;2023-06-22T08:01:14;8.73;;;6.00;;
30896;SDS011;64229;52.246;21.054;2023-06-22T08:03:40;9.70;;;5.68;;
30896;SDS011;64229;52.246;21.054;2023-06-22T08:06:05;9.63;;;5.72;;
30896;SDS011;64229;52.246;21.054;2023-06-22T08:08:34;10.25;;;5.65;;
30896;SDS011;64229;52.246;21.054;2023-06-22T08:11:00;8.88;;;5.00;;
30896;SDS011;64229;52.246;21.054;2023-06-22T08:13:25;6.73;;;4.80;;
30896;SDS011;64229;52.246;21.054;2023-06-22T08:15:50;13.60;;;5.27;;
30896;SDS011;64229;52.246;21.054;2023-06-22T08:18:15;9.00;;;4.47;;
30896;SDS011;64229;52.246;21.054;2023-06-22T08:20:41;5.95;;;4.00;;
30896;SDS011;64229;52.246;21.054;2023-06-22T08:23:07;8.27;;;4.72;;
30896;SDS011;64229;52.246;21.054;2023-06-22T08:25:32;9.93;;;4.30;;
30896;SDS011;64229;52.246;21.054;2023-06-22T08:27:59;7.72;;;4.28;;
30896;SDS011;64229;52.246;21.054;2023-06-22T08:30:25;7.00;;;3.60;;
30896;SDS011;64229;52.246;21.054;2023-06-22T08:32:50;7.25;;;3.45;;
30896;SDS011;64229;52.246;21.054;2023-06-22T08:35:15;7.90;;;3.40;;
30896;SDS011;64229;52.246;21.054;2023-06-22T08:37:41;4.07;;;2.75;;
30896;SDS011;64229;52.246;21.054;2023-06-22T08:40:07;5.53;;;3.35;;
30896;SDS011;64229;52.246;21.054;2023-06-22T08:42:34;7.07;;;3.33;;
30896;SDS011;64229;52.246;21.054;2023-06-22T08:45:03;4.45;;;3.15;;
30896;SDS011;64229;52.246;21.054;2023-06-22T08:47:29;4.82;;;3.40;;
30896;SDS011;64229;52.246;21.054;2023-06-22T08:49:54;4.47;;;3.10;;
30896;SDS011;64229;52.246;21.054;2023-06-22T08:52:20;6.27;;;2.50;;
30896;SDS011;64229;52.246;21.054;2023-06-22T08:54:46;9.05;;;2.83;;
30896;SDS011;64229;52.246;21.054;2023-06-22T08:57:11;10.27;;;2.80;;
30896;SDS011;64229;52.246;21.054;2023-06-22T08:59:37;8.03;;;2.80;;
30896;SDS011;64229;52.246;21.054;2023-06-22T09:02:02;5.33;;;2.67;;
30896;SDS011;64229;52.246;21.054;2023-06-22T09:04:27;3.38;;;2.60;;
30896;SDS011;64229;52.246;21.054;2023-06-22T09:06:53;4.33;;;2.70;;
30896;SDS011;64229;52.246;21.054;2023-06-22T09:09:18;6.00;;;2.63;;
30896;SDS011;64229;52.246;21.054;2023-06-22T09:11:44;5.72;;;2.50;;
30896;SDS011;64229;52.246;21.054;2023-06-22T09:14:10;7.07;;;2.30;;
30896;SDS011;64229;52.246;21.054;2023-06-22T09:16:35;3.80;;;1.80;;
30896;SDS011;64229;52.246;21.054;2023-06-22T09:19:01;3.27;;;2.17;;
30896;SDS011;64229;52.246;21.054;2023-06-22T09:21:26;5.40;;;2.10;;
30896;SDS011;64229;52.246;21.054;2023-06-22T09:23:51;4.05;;;1.95;;
30896;SDS011;64229;52.246;21.054;2023-06-22T09:26:17;4.03;;;2.08;;
30896;SDS011;64229;52.246;21.054;2023-06-22T09:28:43;4.38;;;1.98;;
30896;SDS011;64229;52.246;21.054;2023-06-22T09:31:08;5.85;;;2.00;;
30896;SDS011;64229;52.246;21.054;2023-06-22T09:33:34;4.30;;;1.93;;
30896;SDS011;64229;52.246;21.054;2023-06-22T09:36:00;3.45;;;1.98;;
30896;SDS011;64229;52.246;21.054;2023-06-22T09:38:25;6.90;;;1.80;;
30896;SDS011;64229;52.246;21.054;2023-06-22T09:40:51;5.97;;;2.60;;
30896;SDS011;64229;52.246;21.054;2023-06-22T09:43:16;5.60;;;2.83;;
30896;SDS011;64229;52.246;21.054;2023-06-22T09:45:41;4.38;;;2.00;;
30896;SDS011;64229;52.246;21.054;2023-06-22T09:48:07;5.40;;;2.38;;
30896;SDS011;64229;52.246;21.054;2023-06-22T09:50:32;21.97;;;6.57;;
30896;SDS011;64229;52.246;21.054;2023-06-22T09:52:57;7.30;;;3.20;;
30896;SDS011;64229;52.246;21.054;2023-06-22T09:55:23;8.60;;;3.20;;
30896;SDS011;64229;52.246;21.054;2023-06-22T09:57:48;7.47;;;2.08;;
30896;SDS011;64229;52.246;21.054;2023-06-22T10:00:15;6.20;;;2.60;;
30896;SDS011;64229;52.246;21.054;2023-06-22T10:02:41;5.00;;;2.47;;
30896;SDS011;64229;52.246;21.054;2023-06-22T10:05:07;5.05;;;2.42;;
30896;SDS011;64229;52.246;21.054;2023-06-22T10:07:33;4.43;;;2.20;;
30896;SDS011;64229;52.246;21.054;2023-06-22T10:09:58;8.38;;;2.40;;
30896;SDS011;64229;52.246;21.054;2023-06-22T10:12:25;4.40;;;2.35;;
30896;SDS011;64229;52.246;21.054;2023-06-22T10:14:52;4.47;;;2.42;;
30896;SDS011;64229;52.246;21.054;2023-06-22T10:17:17;4.35;;;2.03;;
30896;SDS011;64229;52.246;21.054;2023-06-22T10:19:43;5.67;;;3.47;;
30896;SDS011;64229;52.246;21.054;2023-06-22T10:22:08;4.30;;;2.50;;
30896;SDS011;64229;52.246;21.054;2023-06-22T10:24:33;6.10;;;3.10;;
30896;SDS011;64229;52.246;21.054;2023-06-22T10:26:58;5.03;;;2.53;;
30896;SDS011;64229;52.246;21.054;2023-06-22T10:29:24;7.10;;;2.97;;
30896;SDS011;64229;52.246;21.054;2023-06-22T10:31:49;4.28;;;2.55;;
30896;SDS011;64229;52.246;21.054;2023-06-22T10:34:14;7.37;;;3.10;;
30896;SDS011;64229;52.246;21.054;2023-06-22T10:36:40;7.60;;;3.15;;
30896;SDS011;64229;52.246;21.054;2023-06-22T10:39:05;6.67;;;3.40;;
30896;SDS011;64229;52.246;21.054;2023-06-22T10:41:30;6.82;;;2.97;;
30896;SDS011;64229;52.246;21.054;2023-06-22T10:43:56;6.13;;;3.15;;
30896;SDS011;64229;52.246;21.054;2023-06-22T10:46:21;6.57;;;3.08;;
30896;SDS011;64229;52.246;21.054;2023-06-22T10:48:48;6.88;;;3.30;;
30896;SDS011;64229;52.246;21.054;2023-06-22T10:51:14;5.27;;;3.17;;
30896;SDS011;64229;52.246;21.054;2023-06-22T10:53:39;6.13;;;2.90;;
30896;SDS011;64229;52.246;21.054;2023-06-22T10:56:04;6.57;;;3.73;;
30896;SDS011;64229;52.246;21.054;2023-06-22T10:58:29;7.60;;;3.53;;
30896;SDS011;64229;52.246;21.054;2023-06-22T11:00:55;5.10;;;3.00;;
30896;SDS011;64229;52.246;21.054;2023-06-22T11:03:20;6.18;;;3.10;;
30896;SDS011;64229;52.246;21.054;2023-06-22T11:05:45;18.60;;;3.47;;
30896;SDS011;64229;52.246;21.054;2023-06-22T11:08:12;6.03;;;3.22;;
30896;SDS011;64229;52.246;21.054;2023-06-22T11:10:38;6.23;;;2.93;;
30896;SDS011;64229;52.246;21.054;2023-06-22T11:13:03;3.70;;;2.77;;
30896;SDS011;64229;52.246;21.054;2023-06-22T11:15:30;4.82;;;2.90;;
30896;SDS011;64229;52.246;21.054;2023-06-22T11:17:55;7.78;;;3.13;;
30896;SDS011;64229;52.246;21.054;2023-06-22T11:20:20;5.63;;;3.43;;
30896;SDS011;64229;52.246;21.054;2023-06-22T11:22:46;5.78;;;3.30;;
30896;SDS011;64229;52.246;21.054;2023-06-22T11:25:11;7.53;;;2.93;;
30896;SDS011;64229;52.246;21.054;2023-06-22T11:27:37;7.15;;;3.70;;
30896;SDS011;64229;52.246;21.054;2023-06-22T11:30:02;6.40;;;3.13;;
30896;SDS011;64229;52.246;21.054;2023-06-22T11:32:28;6.32;;;3.75;;
30896;SDS011;64229;52.246;21.054;2023-06-22T11:34:54;6.53;;;3.63;;
30896;SDS011;64229;52.246;21.054;2023-06-22T11:37:19;5.13;;;3.58;;
30896;SDS011;64229;52.246;21.054;2023-06-22T11:39:44;6.28;;;3.25;;
30896;SDS011;64229;52.246;21.054;2023-06-22T11:42:10;5.40;;;3.17;;
30896;SDS011;64229;52.246;21.054;2023-06-22T11:44:35;5.65;;;3.08;;
30896;SDS011;64229;52.246;21.054;2023-06-22T11:47:01;4.30;;;2.97;;
30896;SDS011;64229;52.246;21.054;2023-06-22T11:49:28;5.32;;;3.10;;
30896;SDS011;64229;52.246;21.054;2023-06-22T11:51:54;6.03;;;3.40;;
30896;SDS011;64229;52.246;21.054;2023-06-22T11:54:19;8.35;;;3.88;;
30896;SDS011;64229;52.246;21.054;2023-06-22T11:56:44;9.17;;;3.23;;
30896;SDS011;64229;52.246;21.054;2023-06-22T11:59:10;17.52;;;4.18;;
30896;SDS011;64229;52.246;21.054;2023-06-22T12:01:35;5.05;;;3.10;;
30896;SDS011;64229;52.246;21.054;2023-06-22T12:04:00;7.23;;;3.40;;
30896;SDS011;64229;52.246;21.054;2023-06-22T12:06:25;8.53;;;3.50;;
30896;SDS011;64229;52.246;21.054;2023-06-22T12:08:51;6.50;;;4.00;;
30896;SDS011;64229;52.246;21.054;2023-06-22T12:11:16;5.93;;;3.20;;
30896;SDS011;64229;52.246;21.054;2023-06-22T12:13:41;6.55;;;3.65;;
30896;SDS011;64229;52.246;21.054;2023-06-22T12:16:07;6.75;;;3.75;;
30896;SDS011;64229;52.246;21.054;2023-06-22T12:18:32;8.47;;;3.50;;
30896;SDS011;64229;52.246;21.054;2023-06-22T12:20:57;7.15;;;3.38;;
30896;SDS011;64229;52.246;21.054;2023-06-22T12:23:23;5.57;;;3.07;;
30896;SDS011;64229;52.246;21.054;2023-06-22T12:25:48;6.37;;;3.60;;
30896;SDS011;64229;52.246;21.054;2023-06-22T12:28:13;9.93;;;4.35;;
30896;SDS011;64229;52.246;21.054;2023-06-22T12:30:39;5.80;;;3.55;;
30896;SDS011;64229;52.246;21.054;2023-06-22T12:33:04;5.82;;;3.17;;
30896;SDS011;64229;52.246;21.054;2023-06-22T12:35:29;5.93;;;3.47;;
30896;SDS011;64229;52.246;21.054;2023-06-22T12:37:54;4.43;;;3.60;;
30896;SDS011;64229;52.246;21.054;2023-06-22T12:40:20;9.83;;;3.47;;
30896;SDS011;64229;52.246;21.054;2023-06-22T12:42:45;5.23;;;3.60;;
30896;SDS011;64229;52.246;21.054;2023-06-22T12:45:10;6.50;;;3.90;;
30896;SDS011;64229;52.246;21.054;2023-06-22T12:47:36;8.70;;;3.15;;
30896;SDS011;64229;52.246;21.054;2023-06-22T12:50:01;5.87;;;2.90;;
30896;SDS011;64229;52.246;21.054;2023-06-22T12:52:27;8.40;;;3.72;;
30896;SDS011;64229;52.246;21.054;2023-06-22T12:54:52;7.97;;;3.30;;
30896;SDS011;64229;52.246;21.054;2023-06-22T12:57:17;7.03;;;4.00;;
30896;SDS011;64229;52.246;21.054;2023-06-22T12:59:44;7.70;;;3.55;;
30896;SDS011;64229;52.246;21.054;2023-06-22T13:02:09;4.93;;;3.75;;
30896;SDS011;64229;52.246;21.054;2023-06-22T13:04:35;6.90;;;3.87;;
30896;SDS011;64229;52.246;21.054;2023-06-22T13:07:00;4.63;;;3.67;;
30896;SDS011;64229;52.246;21.054;2023-06-22T13:09:25;6.00;;;3.70;;
30896;SDS011;64229;52.246;21.054;2023-06-22T13:11:50;6.60;;;3.70;;
30896;SDS011;64229;52.246;21.054;2023-06-22T13:14:17;7.32;;;3.70;;
30896;SDS011;64229;52.246;21.054;2023-06-22T13:16:42;5.47;;;3.30;;
30896;SDS011;64229;52.246;21.054;2023-06-22T13:19:07;5.05;;;3.80;;
30896;SDS011;64229;52.246;21.054;2023-06-22T13:21:33;6.97;;;3.97;;
30896;SDS011;64229;52.246;21.054;2023-06-22T13:23:59;5.55;;;3.25;;
30896;SDS011;64229;52.246;21.054;2023-06-22T13:26:24;5.63;;;3.58;;
30896;SDS011;64229;52.246;21.054;2023-06-22T13:28:49;7.13;;;3.63;;
30896;SDS011;64229;52.246;21.054;2023-06-22T13:31:15;7.00;;;3.83;;
30896;SDS011;64229;52.246;21.054;2023-06-22T13:33:40;6.53;;;4.03;;
30896;SDS011;64229;52.246;21.054;2023-06-22T13:36:05;5.23;;;4.00;;
30896;SDS011;64229;52.246;21.054;2023-06-22T13:38:32;5.07;;;3.78;;
30896;SDS011;64229;52.246;21.054;2023-06-22T13:40:57;5.70;;;4.03;;
30896;SDS011;64229;52.246;21.054;2023-06-22T13:43:24;4.93;;;3.58;;
30896;SDS011;64229;52.246;21.054;2023-06-22T13:45:51;7.07;;;3.90;;
30896;SDS011;64229;52.246;21.054;2023-06-22T13:48:17;3.93;;;3.37;;
30896;SDS011;64229;52.246;21.054;2023-06-22T13:50:42;5.68;;;3.28;;
30896;SDS011;64229;52.246;21.054;2023-06-22T13:53:08;4.63;;;3.65;;
30896;SDS011;64229;52.246;21.054;2023-06-22T13:55:33;5.28;;;4.00;;
30896;SDS011;64229;52.246;21.054;2023-06-22T13:57:59;5.23;;;3.83;;
30896;SDS011;64229;52.246;21.054;2023-06-22T14:00:24;6.13;;;4.47;;
30896;SDS011;64229;52.246;21.054;2023-06-22T14:02:49;8.25;;;4.20;;
30896;SDS011;64229;52.246;21.054;2023-06-22T14:05:14;5.10;;;3.97;;
30896;SDS011;64229;52.246;21.054;2023-06-22T14:07:40;8.55;;;4.57;;
30896;SDS011;64229;52.246;21.054;2023-06-22T14:10:05;6.25;;;4.40;;
30896;SDS011;64229;52.246;21.054;2023-06-22T14:12:31;6.47;;;4.68;;
30896;SDS011;64229;52.246;21.054;2023-06-22T14:14:56;5.10;;;3.97;;
30896;SDS011;64229;52.246;21.054;2023-06-22T14:17:22;7.15;;;4.55;;
30896;SDS011;64229;52.246;21.054;2023-06-22T14:19:50;10.70;;;5.10;;
30896;SDS011;64229;52.246;21.054;2023-06-22T14:22:17;7.75;;;4.72;;
30896;SDS011;64229;52.246;21.054;2023-06-22T14:24:43;9.25;;;4.55;;
30896;SDS011;64229;52.246;21.054;2023-06-22T14:27:09;7.20;;;4.28;;
30896;SDS011;64229;52.246;21.054;2023-06-22T14:29:34;10.83;;;4.43;;
30896;SDS011;64229;52.246;21.054;2023-06-22T14:32:00;7.15;;;4.10;;
30896;SDS011;64229;52.246;21.054;2023-06-22T14:34:25;7.20;;;3.95;;
30896;SDS011;64229;52.246;21.054;2023-06-22T14:36:50;5.70;;;4.00;;
30896;SDS011;64229;52.246;21.054;2023-06-22T14:39:16;7.20;;;4.60;;
30896;SDS011;64229;52.246;21.054;2023-06-22T14:41:41;7.40;;;4.40;;
30896;SDS011;64229;52.246;21.054;2023-06-22T14:44:06;7.43;;;4.17;;
30896;SDS011;64229;52.246;21.054;2023-06-22T14:46:32;6.80;;;4.20;;
30896;SDS011;64229;52.246;21.054;2023-06-22T14:48:57;6.67;;;4.27;;
30896;SDS011;64229;52.246;21.054;2023-06-22T14:51:22;6.83;;;4.03;;
30896;SDS011;64229;52.246;21.054;2023-06-22T14:53:47;7.27;;;4.70;;
30896;SDS011;64229;52.246;21.054;2023-06-22T14:56:13;5.85;;;4.05;;
30896;SDS011;64229;52.246;21.054;2023-06-22T14:58:40;8.15;;;4.47;;
30896;SDS011;64229;52.246;21.054;2023-06-22T15:01:06;8.73;;;4.28;;
30896;SDS011;64229;52.246;21.054;2023-06-22T15:03:33;5.45;;;4.20;;
30896;SDS011;64229;52.246;21.054;2023-06-22T15:06:00;10.32;;;4.80;;
30896;SDS011;64229;52.246;21.054;2023-06-22T15:08:26;7.13;;;4.30;;
30896;SDS011;64229;52.246;21.054;2023-06-22T15:10:52;11.98;;;4.40;;